sensor_id;sensor_type;location;lat;lon;timestamp;P1;durP1;ratioP1;P2;durP2;ratioP2
40757;SDS011;26462;47.384;19.218;2023-08-20T00:02:11;11.65;;;8.48;;
40757;SDS011;26462;47.384;19.218;2023-08-20T00:04:39;13.63;;;9.00;;
40757;SDS011;26462;47.384;19.218;2023-08-20T00:07:08;11.30;;;8.02;;
40757;SDS011;26462;47.384;19.218;2023-08-20T00:09:35;13.35;;;8.52;;
40757;SDS011;26462;47.384;19.218;2023-08-20T00:12:03;11.35;;;8.95;;
40757;SDS011;26462;47.384;19.218;2023-08-20T00:17:19;12.00;;;8.23;;
40757;SDS011;26462;47.384;19.218;2023-08-20T00:19:46;14.88;;;9.15;;
40757;SDS011;26462;47.384;19.218;2023-08-20T00:22:14;10.23;;;8.27;;
40757;SDS011;26462;47.384;19.218;2023-08-20T00:24:42;10.90;;;8.80;;
40757;SDS011;26462;47.384;19.218;2023-08-20T00:27:09;10.55;;;8.15;;
40757;SDS011;26462;47.384;19.218;2023-08-20T00:29:36;10.80;;;9.02;;
40757;SDS011;26462;47.384;19.218;2023-08-20T00:32:04;13.18;;;8.98;;
40757;SDS011;26462;47.384;19.218;2023-08-20T00:34:31;12.60;;;8.55;;
40757;SDS011;26462;47.384;19.218;2023-08-20T00:36:58;11.02;;;8.65;;
40757;SDS011;26462;47.384;19.218;2023-08-20T00:39:25;10.85;;;8.73;;
40757;SDS011;26462;47.384;19.218;2023-08-20T00:41:52;12.52;;;9.07;;
40757;SDS011;26462;47.384;19.218;2023-08-20T00:44:19;13.35;;;8.93;;
40757;SDS011;26462;47.384;19.218;2023-08-20T00:46:47;11.15;;;9.20;;
40757;SDS011;26462;47.384;19.218;2023-08-20T00:49:15;13.60;;;9.48;;
40757;SDS011;26462;47.384;19.218;2023-08-20T00:51:44;19.02;;;9.75;;
40757;SDS011;26462;47.384;19.218;2023-08-20T00:54:12;12.90;;;9.05;;
40757;SDS011;26462;47.384;19.218;2023-08-20T00:56:39;14.00;;;9.65;;
40757;SDS011;26462;47.384;19.218;2023-08-20T00:59:06;12.80;;;8.57;;
40757;SDS011;26462;47.384;19.218;2023-08-20T01:01:33;12.05;;;8.65;;
40757;SDS011;26462;47.384;19.218;2023-08-20T01:04:01;13.75;;;9.32;;
40757;SDS011;26462;47.384;19.218;2023-08-20T01:09:03;11.85;;;8.75;;
40757;SDS011;26462;47.384;19.218;2023-08-20T01:11:37;12.10;;;9.13;;
40757;SDS011;26462;47.384;19.218;2023-08-20T01:14:16;11.93;;;8.75;;
40757;SDS011;26462;47.384;19.218;2023-08-20T01:16:45;10.82;;;8.35;;
40757;SDS011;26462;47.384;19.218;2023-08-20T01:19:16;11.68;;;8.88;;
40757;SDS011;26462;47.384;19.218;2023-08-20T01:30:14;11.73;;;8.35;;
40757;SDS011;26462;47.384;19.218;2023-08-20T01:32:42;13.07;;;8.88;;
40757;SDS011;26462;47.384;19.218;2023-08-20T01:35:13;13.00;;;8.93;;
40757;SDS011;26462;47.384;19.218;2023-08-20T01:37:42;11.80;;;8.43;;
40757;SDS011;26462;47.384;19.218;2023-08-20T01:40:10;10.88;;;8.20;;
40757;SDS011;26462;47.384;19.218;2023-08-20T01:42:37;11.07;;;9.00;;
40757;SDS011;26462;47.384;19.218;2023-08-20T01:45:06;11.77;;;9.02;;
40757;SDS011;26462;47.384;19.218;2023-08-20T01:47:33;11.35;;;7.75;;
40757;SDS011;26462;47.384;19.218;2023-08-20T01:50:02;10.88;;;8.65;;
40757;SDS011;26462;47.384;19.218;2023-08-20T01:52:33;12.93;;;8.32;;
40757;SDS011;26462;47.384;19.218;2023-08-20T01:55:00;10.80;;;8.77;;
40757;SDS011;26462;47.384;19.218;2023-08-20T01:57:27;11.75;;;8.40;;
40757;SDS011;26462;47.384;19.218;2023-08-20T01:59:54;12.38;;;8.18;;
40757;SDS011;26462;47.384;19.218;2023-08-20T02:02:22;12.70;;;8.88;;
40757;SDS011;26462;47.384;19.218;2023-08-20T02:04:49;10.57;;;8.10;;
40757;SDS011;26462;47.384;19.218;2023-08-20T02:07:16;13.18;;;9.52;;
40757;SDS011;26462;47.384;19.218;2023-08-20T02:09:44;11.65;;;8.15;;
40757;SDS011;26462;47.384;19.218;2023-08-20T02:12:12;13.55;;;9.05;;
40757;SDS011;26462;47.384;19.218;2023-08-20T02:14:39;12.90;;;8.35;;
40757;SDS011;26462;47.384;19.218;2023-08-20T02:17:07;11.45;;;8.23;;
40757;SDS011;26462;47.384;19.218;2023-08-20T02:19:38;10.90;;;8.38;;
40757;SDS011;26462;47.384;19.218;2023-08-20T02:22:05;12.80;;;9.23;;
40757;SDS011;26462;47.384;19.218;2023-08-20T02:24:33;11.07;;;8.48;;
40757;SDS011;26462;47.384;19.218;2023-08-20T02:27:00;14.07;;;8.43;;
40757;SDS011;26462;47.384;19.218;2023-08-20T02:29:27;13.82;;;9.27;;
40757;SDS011;26462;47.384;19.218;2023-08-20T02:31:54;16.83;;;9.70;;
40757;SDS011;26462;47.384;19.218;2023-08-20T02:34:22;14.30;;;8.30;;
40757;SDS011;26462;47.384;19.218;2023-08-20T02:36:49;12.77;;;8.90;;
40757;SDS011;26462;47.384;19.218;2023-08-20T02:39:16;12.85;;;9.23;;
40757;SDS011;26462;47.384;19.218;2023-08-20T02:41:44;14.90;;;9.18;;
40757;SDS011;26462;47.384;19.218;2023-08-20T02:44:11;13.93;;;9.43;;
40757;SDS011;26462;47.384;19.218;2023-08-20T02:46:38;13.05;;;9.07;;
40757;SDS011;26462;47.384;19.218;2023-08-20T02:49:07;12.60;;;8.90;;
40757;SDS011;26462;47.384;19.218;2023-08-20T02:51:34;12.98;;;8.63;;
40757;SDS011;26462;47.384;19.218;2023-08-20T02:54:01;14.15;;;8.63;;
40757;SDS011;26462;47.384;19.218;2023-08-20T02:56:28;14.00;;;8.27;;
40757;SDS011;26462;47.384;19.218;2023-08-20T02:58:55;14.13;;;8.50;;
40757;SDS011;26462;47.384;19.218;2023-08-20T03:01:23;14.35;;;9.02;;
40757;SDS011;26462;47.384;19.218;2023-08-20T03:03:53;11.38;;;8.75;;
40757;SDS011;26462;47.384;19.218;2023-08-20T03:06:20;12.43;;;8.45;;
40757;SDS011;26462;47.384;19.218;2023-08-20T03:08:47;12.90;;;8.35;;
40757;SDS011;26462;47.384;19.218;2023-08-20T03:11:14;11.35;;;7.93;;
40757;SDS011;26462;47.384;19.218;2023-08-20T03:13:42;11.45;;;8.13;;
40757;SDS011;26462;47.384;19.218;2023-08-20T03:16:09;11.65;;;8.10;;
40757;SDS011;26462;47.384;19.218;2023-08-20T03:18:36;12.65;;;7.75;;
40757;SDS011;26462;47.384;19.218;2023-08-20T03:21:03;10.32;;;8.25;;
40757;SDS011;26462;47.384;19.218;2023-08-20T03:23:30;11.15;;;8.05;;
40757;SDS011;26462;47.384;19.218;2023-08-20T03:25:58;11.77;;;8.00;;
40757;SDS011;26462;47.384;19.218;2023-08-20T03:28:25;11.30;;;8.32;;
40757;SDS011;26462;47.384;19.218;2023-08-20T03:30:53;11.30;;;7.70;;
40757;SDS011;26462;47.384;19.218;2023-08-20T03:33:24;11.88;;;8.20;;
40757;SDS011;26462;47.384;19.218;2023-08-20T03:35:52;12.70;;;7.93;;
40757;SDS011;26462;47.384;19.218;2023-08-20T03:38:19;13.25;;;8.20;;
40757;SDS011;26462;47.384;19.218;2023-08-20T03:40:47;11.27;;;8.60;;
40757;SDS011;26462;47.384;19.218;2023-08-20T03:43:14;11.95;;;8.93;;
40757;SDS011;26462;47.384;19.218;2023-08-20T03:45:41;14.70;;;8.48;;
40757;SDS011;26462;47.384;19.218;2023-08-20T03:48:09;10.32;;;7.82;;
40757;SDS011;26462;47.384;19.218;2023-08-20T03:50:36;13.32;;;9.27;;
40757;SDS011;26462;47.384;19.218;2023-08-20T03:53:03;13.80;;;9.18;;
40757;SDS011;26462;47.384;19.218;2023-08-20T03:55:30;15.15;;;9.18;;
40757;SDS011;26462;47.384;19.218;2023-08-20T03:57:57;11.85;;;8.18;;
40757;SDS011;26462;47.384;19.218;2023-08-20T04:00:25;10.95;;;7.97;;
40757;SDS011;26462;47.384;19.218;2023-08-20T04:02:53;12.30;;;8.23;;
40757;SDS011;26462;47.384;19.218;2023-08-20T04:05:20;14.00;;;8.73;;
40757;SDS011;26462;47.384;19.218;2023-08-20T04:07:48;10.40;;;7.82;;
40757;SDS011;26462;47.384;19.218;2023-08-20T04:10:18;13.50;;;8.23;;
40757;SDS011;26462;47.384;19.218;2023-08-20T04:12:45;10.43;;;8.10;;
40757;SDS011;26462;47.384;19.218;2023-08-20T04:15:12;12.27;;;8.25;;
40757;SDS011;26462;47.384;19.218;2023-08-20T04:17:40;15.38;;;8.65;;
40757;SDS011;26462;47.384;19.218;2023-08-20T04:20:07;15.75;;;8.02;;
40757;SDS011;26462;47.384;19.218;2023-08-20T04:22:36;11.43;;;8.02;;
40757;SDS011;26462;47.384;19.218;2023-08-20T04:25:04;14.05;;;8.75;;
40757;SDS011;26462;47.384;19.218;2023-08-20T04:27:32;12.00;;;8.02;;
40757;SDS011;26462;47.384;19.218;2023-08-20T04:30:00;12.48;;;8.23;;
40757;SDS011;26462;47.384;19.218;2023-08-20T04:32:28;12.15;;;8.38;;
40757;SDS011;26462;47.384;19.218;2023-08-20T04:34:55;11.57;;;7.72;;
40757;SDS011;26462;47.384;19.218;2023-08-20T04:37:22;11.93;;;8.32;;
40757;SDS011;26462;47.384;19.218;2023-08-20T04:39:51;14.07;;;8.75;;
40757;SDS011;26462;47.384;19.218;2023-08-20T04:42:18;12.52;;;8.90;;
40757;SDS011;26462;47.384;19.218;2023-08-20T04:44:45;11.55;;;8.93;;
40757;SDS011;26462;47.384;19.218;2023-08-20T04:47:12;11.15;;;8.43;;
40757;SDS011;26462;47.384;19.218;2023-08-20T04:49:40;11.38;;;7.90;;
40757;SDS011;26462;47.384;19.218;2023-08-20T04:52:07;11.38;;;8.75;;
40757;SDS011;26462;47.384;19.218;2023-08-20T04:54:35;12.88;;;8.75;;
40757;SDS011;26462;47.384;19.218;2023-08-20T04:57:02;13.27;;;9.23;;
40757;SDS011;26462;47.384;19.218;2023-08-20T04:59:29;12.80;;;9.20;;
40757;SDS011;26462;47.384;19.218;2023-08-20T05:02:22;12.18;;;8.45;;
40757;SDS011;26462;47.384;19.218;2023-08-20T05:04:54;13.52;;;8.75;;
40757;SDS011;26462;47.384;19.218;2023-08-20T05:07:22;11.15;;;8.38;;
40757;SDS011;26462;47.384;19.218;2023-08-20T05:09:49;12.23;;;8.73;;
40757;SDS011;26462;47.384;19.218;2023-08-20T05:12:16;10.85;;;8.23;;
40757;SDS011;26462;47.384;19.218;2023-08-20T05:14:43;13.18;;;8.52;;
40757;SDS011;26462;47.384;19.218;2023-08-20T05:17:11;11.25;;;8.63;;
40757;SDS011;26462;47.384;19.218;2023-08-20T05:19:38;10.90;;;8.05;;
40757;SDS011;26462;47.384;19.218;2023-08-20T05:22:07;11.38;;;8.95;;
40757;SDS011;26462;47.384;19.218;2023-08-20T05:24:35;11.05;;;7.97;;
40757;SDS011;26462;47.384;19.218;2023-08-20T05:29:36;11.10;;;8.35;;
40757;SDS011;26462;47.384;19.218;2023-08-20T05:32:06;10.77;;;8.57;;
40757;SDS011;26462;47.384;19.218;2023-08-20T05:34:33;11.73;;;8.07;;
40757;SDS011;26462;47.384;19.218;2023-08-20T05:37:01;9.43;;;8.10;;
40757;SDS011;26462;47.384;19.218;2023-08-20T05:39:30;10.48;;;7.85;;
40757;SDS011;26462;47.384;19.218;2023-08-20T05:42:04;9.52;;;7.85;;
40757;SDS011;26462;47.384;19.218;2023-08-20T05:44:31;11.45;;;7.57;;
40757;SDS011;26462;47.384;19.218;2023-08-20T05:46:59;9.88;;;7.75;;
40757;SDS011;26462;47.384;19.218;2023-08-20T05:49:27;9.18;;;7.55;;
40757;SDS011;26462;47.384;19.218;2023-08-20T05:51:57;9.88;;;7.25;;
40757;SDS011;26462;47.384;19.218;2023-08-20T05:54:25;8.82;;;7.03;;
40757;SDS011;26462;47.384;19.218;2023-08-20T05:56:54;10.38;;;7.35;;
40757;SDS011;26462;47.384;19.218;2023-08-20T05:59:21;9.27;;;7.03;;
40757;SDS011;26462;47.384;19.218;2023-08-20T06:01:50;10.20;;;7.43;;
40757;SDS011;26462;47.384;19.218;2023-08-20T06:04:17;8.88;;;7.45;;
40757;SDS011;26462;47.384;19.218;2023-08-20T06:06:44;11.70;;;8.15;;
40757;SDS011;26462;47.384;19.218;2023-08-20T06:09:12;9.70;;;7.88;;
40757;SDS011;26462;47.384;19.218;2023-08-20T06:11:39;9.10;;;7.22;;
40757;SDS011;26462;47.384;19.218;2023-08-20T06:14:06;9.38;;;7.75;;
40757;SDS011;26462;47.384;19.218;2023-08-20T06:16:34;9.60;;;7.13;;
40757;SDS011;26462;47.384;19.218;2023-08-20T06:19:01;7.50;;;6.68;;
40757;SDS011;26462;47.384;19.218;2023-08-20T06:21:30;10.65;;;7.25;;
40757;SDS011;26462;47.384;19.218;2023-08-20T06:23:57;10.93;;;6.88;;
40757;SDS011;26462;47.384;19.218;2023-08-20T06:26:24;10.73;;;7.60;;
40757;SDS011;26462;47.384;19.218;2023-08-20T06:28:52;9.73;;;7.07;;
40757;SDS011;26462;47.384;19.218;2023-08-20T06:31:19;9.15;;;6.85;;
40757;SDS011;26462;47.384;19.218;2023-08-20T06:33:46;11.00;;;7.38;;
40757;SDS011;26462;47.384;19.218;2023-08-20T06:36:14;9.45;;;7.45;;
40757;SDS011;26462;47.384;19.218;2023-08-20T06:38:43;8.43;;;7.28;;
40757;SDS011;26462;47.384;19.218;2023-08-20T06:41:10;8.57;;;6.95;;
40757;SDS011;26462;47.384;19.218;2023-08-20T06:43:37;11.02;;;6.88;;
40757;SDS011;26462;47.384;19.218;2023-08-20T06:46:04;7.25;;;6.13;;
40757;SDS011;26462;47.384;19.218;2023-08-20T06:48:32;8.40;;;6.40;;
40757;SDS011;26462;47.384;19.218;2023-08-20T06:51:07;10.18;;;6.75;;
40757;SDS011;26462;47.384;19.218;2023-08-20T06:53:35;10.95;;;8.05;;
40757;SDS011;26462;47.384;19.218;2023-08-20T06:56:02;9.35;;;6.80;;
40757;SDS011;26462;47.384;19.218;2023-08-20T06:58:30;9.27;;;6.45;;
40757;SDS011;26462;47.384;19.218;2023-08-20T07:00:57;9.10;;;6.43;;
40757;SDS011;26462;47.384;19.218;2023-08-20T07:06:04;10.02;;;6.90;;
40757;SDS011;26462;47.384;19.218;2023-08-20T07:08:32;9.18;;;6.43;;
40757;SDS011;26462;47.384;19.218;2023-08-20T07:10:59;9.98;;;7.20;;
40757;SDS011;26462;47.384;19.218;2023-08-20T07:13:26;7.80;;;6.45;;
40757;SDS011;26462;47.384;19.218;2023-08-20T07:15:53;7.80;;;6.32;;
40757;SDS011;26462;47.384;19.218;2023-08-20T07:18:21;7.95;;;5.93;;
40757;SDS011;26462;47.384;19.218;2023-08-20T07:20:49;7.88;;;5.85;;
40757;SDS011;26462;47.384;19.218;2023-08-20T07:23:18;7.05;;;6.05;;
40757;SDS011;26462;47.384;19.218;2023-08-20T07:25:45;6.35;;;5.60;;
40757;SDS011;26462;47.384;19.218;2023-08-20T07:28:13;8.35;;;6.32;;
40757;SDS011;26462;47.384;19.218;2023-08-20T07:30:40;7.00;;;6.20;;
40757;SDS011;26462;47.384;19.218;2023-08-20T07:33:10;7.32;;;6.15;;
40757;SDS011;26462;47.384;19.218;2023-08-20T07:35:38;7.38;;;5.38;;
40757;SDS011;26462;47.384;19.218;2023-08-20T07:38:05;6.80;;;5.90;;
40757;SDS011;26462;47.384;19.218;2023-08-20T07:40:32;8.45;;;6.00;;
40757;SDS011;26462;47.384;19.218;2023-08-20T07:43:01;7.00;;;5.55;;
40757;SDS011;26462;47.384;19.218;2023-08-20T07:45:29;7.88;;;6.07;;
40757;SDS011;26462;47.384;19.218;2023-08-20T07:47:56;9.10;;;5.75;;
40757;SDS011;26462;47.384;19.218;2023-08-20T07:50:23;8.15;;;5.78;;
40757;SDS011;26462;47.384;19.218;2023-08-20T07:52:50;6.65;;;5.68;;
40757;SDS011;26462;47.384;19.218;2023-08-20T07:55:17;6.97;;;5.95;;
40757;SDS011;26462;47.384;19.218;2023-08-20T07:57:44;8.18;;;5.55;;
40757;SDS011;26462;47.384;19.218;2023-08-20T08:00:12;7.35;;;6.05;;
40757;SDS011;26462;47.384;19.218;2023-08-20T08:02:40;7.00;;;5.13;;
40757;SDS011;26462;47.384;19.218;2023-08-20T08:05:07;7.05;;;5.35;;
40757;SDS011;26462;47.384;19.218;2023-08-20T08:07:34;7.70;;;6.10;;
40757;SDS011;26462;47.384;19.218;2023-08-20T08:10:02;6.20;;;5.50;;
40757;SDS011;26462;47.384;19.218;2023-08-20T08:12:29;8.23;;;6.03;;
40757;SDS011;26462;47.384;19.218;2023-08-20T08:14:57;6.85;;;5.85;;
40757;SDS011;26462;47.384;19.218;2023-08-20T08:17:24;9.00;;;6.70;;
40757;SDS011;26462;47.384;19.218;2023-08-20T08:19:51;7.80;;;6.45;;
40757;SDS011;26462;47.384;19.218;2023-08-20T08:22:20;10.20;;;6.30;;
40757;SDS011;26462;47.384;19.218;2023-08-20T08:24:47;8.20;;;6.55;;
40757;SDS011;26462;47.384;19.218;2023-08-20T08:27:14;7.20;;;6.50;;
40757;SDS011;26462;47.384;19.218;2023-08-20T08:29:41;8.20;;;6.47;;
40757;SDS011;26462;47.384;19.218;2023-08-20T08:32:08;10.10;;;6.88;;
40757;SDS011;26462;47.384;19.218;2023-08-20T08:34:35;7.30;;;6.53;;
40757;SDS011;26462;47.384;19.218;2023-08-20T08:37:03;6.93;;;6.10;;
40757;SDS011;26462;47.384;19.218;2023-08-20T08:39:30;6.90;;;6.00;;
40757;SDS011;26462;47.384;19.218;2023-08-20T08:42:06;6.05;;;5.10;;
40757;SDS011;26462;47.384;19.218;2023-08-20T08:44:34;6.88;;;6.03;;
40757;SDS011;26462;47.384;19.218;2023-08-20T08:47:04;6.72;;;5.95;;
40757;SDS011;26462;47.384;19.218;2023-08-20T08:49:35;6.05;;;5.07;;
40757;SDS011;26462;47.384;19.218;2023-08-20T08:52:03;8.25;;;5.82;;
40757;SDS011;26462;47.384;19.218;2023-08-20T08:54:32;9.48;;;6.82;;
40757;SDS011;26462;47.384;19.218;2023-08-20T08:57:00;6.85;;;5.88;;
40757;SDS011;26462;47.384;19.218;2023-08-20T08:59:27;7.80;;;5.38;;
40757;SDS011;26462;47.384;19.218;2023-08-20T09:01:54;7.80;;;5.10;;
40757;SDS011;26462;47.384;19.218;2023-08-20T09:04:23;8.13;;;5.50;;
40757;SDS011;26462;47.384;19.218;2023-08-20T09:06:51;9.23;;;6.13;;
40757;SDS011;26462;47.384;19.218;2023-08-20T09:09:20;7.40;;;5.80;;
40757;SDS011;26462;47.384;19.218;2023-08-20T09:11:48;6.97;;;5.68;;
40757;SDS011;26462;47.384;19.218;2023-08-20T09:14:22;6.13;;;5.30;;
40757;SDS011;26462;47.384;19.218;2023-08-20T09:16:54;6.45;;;5.80;;
40757;SDS011;26462;47.384;19.218;2023-08-20T09:19:29;7.07;;;5.60;;
40757;SDS011;26462;47.384;19.218;2023-08-20T09:22:01;6.03;;;5.43;;
40757;SDS011;26462;47.384;19.218;2023-08-20T09:24:44;7.10;;;5.18;;
40757;SDS011;26462;47.384;19.218;2023-08-20T09:27:12;5.65;;;4.90;;
40757;SDS011;26462;47.384;19.218;2023-08-20T09:29:44;5.95;;;5.00;;
40757;SDS011;26462;47.384;19.218;2023-08-20T09:34:43;9.63;;;6.13;;
40757;SDS011;26462;47.384;19.218;2023-08-20T09:37:11;8.73;;;6.18;;
40757;SDS011;26462;47.384;19.218;2023-08-20T09:39:40;5.97;;;5.07;;
40757;SDS011;26462;47.384;19.218;2023-08-20T09:42:08;8.30;;;6.90;;
40757;SDS011;26462;47.384;19.218;2023-08-20T09:44:36;7.50;;;5.25;;
40757;SDS011;26462;47.384;19.218;2023-08-20T09:47:08;6.60;;;5.45;;
40757;SDS011;26462;47.384;19.218;2023-08-20T09:52:05;9.70;;;7.07;;
40757;SDS011;26462;47.384;19.218;2023-08-20T09:57:31;6.10;;;5.03;;
40757;SDS011;26462;47.384;19.218;2023-08-20T10:00:10;5.55;;;5.05;;
40757;SDS011;26462;47.384;19.218;2023-08-20T10:02:39;7.05;;;5.63;;
40757;SDS011;26462;47.384;19.218;2023-08-20T10:05:08;7.88;;;6.68;;
40757;SDS011;26462;47.384;19.218;2023-08-20T10:07:37;7.07;;;5.30;;
40757;SDS011;26462;47.384;19.218;2023-08-20T10:10:06;6.13;;;5.53;;
40757;SDS011;26462;47.384;19.218;2023-08-20T10:12:35;6.55;;;5.18;;
40757;SDS011;26462;47.384;19.218;2023-08-20T10:15:08;9.75;;;6.90;;
40757;SDS011;26462;47.384;19.218;2023-08-20T10:17:44;7.60;;;5.78;;
40757;SDS011;26462;47.384;19.218;2023-08-20T10:20:13;7.60;;;5.20;;
40757;SDS011;26462;47.384;19.218;2023-08-20T10:22:43;6.82;;;6.13;;
40757;SDS011;26462;47.384;19.218;2023-08-20T10:25:33;7.30;;;6.03;;
40757;SDS011;26462;47.384;19.218;2023-08-20T10:28:23;6.28;;;5.60;;
40757;SDS011;26462;47.384;19.218;2023-08-20T10:31:08;6.20;;;5.55;;
40757;SDS011;26462;47.384;19.218;2023-08-20T10:33:39;5.40;;;4.90;;
40757;SDS011;26462;47.384;19.218;2023-08-20T10:36:20;6.35;;;5.60;;
40757;SDS011;26462;47.384;19.218;2023-08-20T10:38:58;6.82;;;6.00;;
40757;SDS011;26462;47.384;19.218;2023-08-20T10:41:31;6.68;;;6.07;;
40757;SDS011;26462;47.384;19.218;2023-08-20T10:44:00;10.30;;;6.22;;
40757;SDS011;26462;47.384;19.218;2023-08-20T10:46:28;6.30;;;5.65;;
40757;SDS011;26462;47.384;19.218;2023-08-20T10:48:57;7.75;;;6.32;;
40757;SDS011;26462;47.384;19.218;2023-08-20T10:51:36;7.40;;;6.60;;
40757;SDS011;26462;47.384;19.218;2023-08-20T10:54:05;8.95;;;6.05;;
40757;SDS011;26462;47.384;19.218;2023-08-20T11:01:48;7.47;;;6.50;;
40757;SDS011;26462;47.384;19.218;2023-08-20T11:04:30;7.50;;;6.80;;
40757;SDS011;26462;47.384;19.218;2023-08-20T11:06:59;7.00;;;6.30;;
40757;SDS011;26462;47.384;19.218;2023-08-20T11:09:27;6.90;;;6.25;;
40757;SDS011;26462;47.384;19.218;2023-08-20T11:11:56;7.80;;;6.60;;
40757;SDS011;26462;47.384;19.218;2023-08-20T11:14:24;11.88;;;6.38;;
40757;SDS011;26462;47.384;19.218;2023-08-20T11:16:51;10.70;;;7.35;;
40757;SDS011;26462;47.384;19.218;2023-08-20T11:19:19;8.30;;;6.85;;
40757;SDS011;26462;47.384;19.218;2023-08-20T11:21:50;7.57;;;5.70;;
40757;SDS011;26462;47.384;19.218;2023-08-20T11:24:18;7.63;;;6.10;;
40757;SDS011;26462;47.384;19.218;2023-08-20T11:26:47;7.53;;;6.15;;
40757;SDS011;26462;47.384;19.218;2023-08-20T11:29:15;7.70;;;6.32;;
40757;SDS011;26462;47.384;19.218;2023-08-20T11:31:49;7.95;;;6.18;;
40757;SDS011;26462;47.384;19.218;2023-08-20T11:34:18;6.70;;;6.10;;
40757;SDS011;26462;47.384;19.218;2023-08-20T11:36:45;8.00;;;6.68;;
40757;SDS011;26462;47.384;19.218;2023-08-20T11:39:13;7.22;;;6.50;;
40757;SDS011;26462;47.384;19.218;2023-08-20T11:41:40;8.05;;;7.18;;
40757;SDS011;26462;47.384;19.218;2023-08-20T11:44:08;7.10;;;6.40;;
40757;SDS011;26462;47.384;19.218;2023-08-20T11:46:43;7.40;;;6.40;;
40757;SDS011;26462;47.384;19.218;2023-08-20T11:49:11;8.52;;;6.40;;
40757;SDS011;26462;47.384;19.218;2023-08-20T11:51:40;8.13;;;6.45;;
40757;SDS011;26462;47.384;19.218;2023-08-20T11:54:08;9.30;;;6.90;;
40757;SDS011;26462;47.384;19.218;2023-08-20T11:56:46;8.30;;;6.40;;
40757;SDS011;26462;47.384;19.218;2023-08-20T11:59:16;9.93;;;6.90;;
40757;SDS011;26462;47.384;19.218;2023-08-20T12:01:51;7.28;;;6.57;;
40757;SDS011;26462;47.384;19.218;2023-08-20T12:04:23;7.45;;;6.18;;
40757;SDS011;26462;47.384;19.218;2023-08-20T12:09:51;7.70;;;5.75;;
40757;SDS011;26462;47.384;19.218;2023-08-20T12:12:20;7.28;;;5.97;;
40757;SDS011;26462;47.384;19.218;2023-08-20T12:14:48;6.85;;;5.53;;
40757;SDS011;26462;47.384;19.218;2023-08-20T12:17:18;7.60;;;5.93;;
40757;SDS011;26462;47.384;19.218;2023-08-20T12:19:46;7.85;;;5.65;;
40757;SDS011;26462;47.384;19.218;2023-08-20T12:22:13;9.50;;;7.78;;
40757;SDS011;26462;47.384;19.218;2023-08-20T12:24:40;12.02;;;8.20;;
40757;SDS011;26462;47.384;19.218;2023-08-20T12:27:07;10.32;;;7.20;;
40757;SDS011;26462;47.384;19.218;2023-08-20T12:29:34;9.23;;;6.30;;
40757;SDS011;26462;47.384;19.218;2023-08-20T12:32:01;8.13;;;5.97;;
40757;SDS011;26462;47.384;19.218;2023-08-20T12:34:30;6.65;;;6.05;;
40757;SDS011;26462;47.384;19.218;2023-08-20T12:36:57;5.95;;;5.35;;
40757;SDS011;26462;47.384;19.218;2023-08-20T12:39:24;6.43;;;5.55;;
40757;SDS011;26462;47.384;19.218;2023-08-20T12:41:52;7.75;;;5.85;;
40757;SDS011;26462;47.384;19.218;2023-08-20T12:44:19;8.02;;;5.57;;
40757;SDS011;26462;47.384;19.218;2023-08-20T12:46:46;9.25;;;6.63;;
40757;SDS011;26462;47.384;19.218;2023-08-20T12:49:13;7.65;;;5.32;;
40757;SDS011;26462;47.384;19.218;2023-08-20T12:51:40;6.95;;;5.80;;
40757;SDS011;26462;47.384;19.218;2023-08-20T12:54:07;6.32;;;5.63;;
40757;SDS011;26462;47.384;19.218;2023-08-20T12:56:35;7.03;;;6.28;;
40757;SDS011;26462;47.384;19.218;2023-08-20T12:59:02;9.75;;;5.88;;
40757;SDS011;26462;47.384;19.218;2023-08-20T13:01:29;7.18;;;5.60;;
40757;SDS011;26462;47.384;19.218;2023-08-20T13:03:56;6.95;;;5.90;;
40757;SDS011;26462;47.384;19.218;2023-08-20T13:06:24;5.88;;;5.38;;
40757;SDS011;26462;47.384;19.218;2023-08-20T13:08:52;8.85;;;6.00;;
40757;SDS011;26462;47.384;19.218;2023-08-20T13:11:20;7.95;;;5.45;;
40757;SDS011;26462;47.384;19.218;2023-08-20T13:13:48;7.63;;;6.50;;
40757;SDS011;26462;47.384;19.218;2023-08-20T13:16:18;7.18;;;5.70;;
40757;SDS011;26462;47.384;19.218;2023-08-20T13:18:46;8.27;;;5.63;;
40757;SDS011;26462;47.384;19.218;2023-08-20T13:21:13;6.80;;;5.60;;
40757;SDS011;26462;47.384;19.218;2023-08-20T13:23:40;7.60;;;6.28;;
40757;SDS011;26462;47.384;19.218;2023-08-20T13:26:07;6.15;;;5.45;;
40757;SDS011;26462;47.384;19.218;2023-08-20T13:28:36;8.68;;;6.07;;
40757;SDS011;26462;47.384;19.218;2023-08-20T13:31:03;7.32;;;5.72;;
40757;SDS011;26462;47.384;19.218;2023-08-20T13:33:31;6.32;;;5.47;;
40757;SDS011;26462;47.384;19.218;2023-08-20T13:35:58;6.93;;;5.68;;
40757;SDS011;26462;47.384;19.218;2023-08-20T13:38:25;7.00;;;6.30;;
40757;SDS011;26462;47.384;19.218;2023-08-20T13:40:53;6.25;;;5.65;;
40757;SDS011;26462;47.384;19.218;2023-08-20T13:43:22;7.38;;;5.65;;
40757;SDS011;26462;47.384;19.218;2023-08-20T13:45:50;7.22;;;6.53;;
40757;SDS011;26462;47.384;19.218;2023-08-20T13:48:17;9.32;;;6.68;;
40757;SDS011;26462;47.384;19.218;2023-08-20T13:50:44;8.43;;;6.13;;
40757;SDS011;26462;47.384;19.218;2023-08-20T13:53:12;6.20;;;5.60;;
40757;SDS011;26462;47.384;19.218;2023-08-20T13:55:39;7.45;;;6.68;;
40757;SDS011;26462;47.384;19.218;2023-08-20T13:58:07;8.27;;;6.15;;
40757;SDS011;26462;47.384;19.218;2023-08-20T14:00:36;6.95;;;6.05;;
40757;SDS011;26462;47.384;19.218;2023-08-20T14:03:05;6.70;;;6.00;;
40757;SDS011;26462;47.384;19.218;2023-08-20T14:05:33;6.32;;;5.72;;
40757;SDS011;26462;47.384;19.218;2023-08-20T14:08:00;6.80;;;6.10;;
40757;SDS011;26462;47.384;19.218;2023-08-20T14:10:27;6.15;;;5.55;;
40757;SDS011;26462;47.384;19.218;2023-08-20T14:12:55;6.68;;;6.07;;
40757;SDS011;26462;47.384;19.218;2023-08-20T14:15:22;6.85;;;5.78;;
40757;SDS011;26462;47.384;19.218;2023-08-20T14:17:50;7.70;;;6.32;;
40757;SDS011;26462;47.384;19.218;2023-08-20T14:20:17;6.90;;;6.20;;
40757;SDS011;26462;47.384;19.218;2023-08-20T14:22:45;8.95;;;6.03;;
40757;SDS011;26462;47.384;19.218;2023-08-20T14:25:12;6.50;;;5.82;;
40757;SDS011;26462;47.384;19.218;2023-08-20T14:27:40;6.63;;;5.97;;
40757;SDS011;26462;47.384;19.218;2023-08-20T14:30:07;6.57;;;5.88;;
40757;SDS011;26462;47.384;19.218;2023-08-20T14:32:35;7.13;;;6.28;;
40757;SDS011;26462;47.384;19.218;2023-08-20T14:35:06;6.68;;;6.07;;
40757;SDS011;26462;47.384;19.218;2023-08-20T14:37:34;7.18;;;5.78;;
40757;SDS011;26462;47.384;19.218;2023-08-20T14:40:01;7.75;;;5.78;;
40757;SDS011;26462;47.384;19.218;2023-08-20T14:42:32;6.60;;;5.30;;
40757;SDS011;26462;47.384;19.218;2023-08-20T14:45:01;7.80;;;5.43;;
40757;SDS011;26462;47.384;19.218;2023-08-20T14:47:30;5.90;;;5.30;;
40757;SDS011;26462;47.384;19.218;2023-08-20T14:49:58;5.78;;;5.15;;
40757;SDS011;26462;47.384;19.218;2023-08-20T14:52:25;7.88;;;5.65;;
40757;SDS011;26462;47.384;19.218;2023-08-20T14:54:52;6.65;;;5.28;;
40757;SDS011;26462;47.384;19.218;2023-08-20T14:57:20;7.13;;;5.32;;
40757;SDS011;26462;47.384;19.218;2023-08-20T14:59:48;8.88;;;6.30;;
40757;SDS011;26462;47.384;19.218;2023-08-20T15:02:15;7.63;;;6.68;;
40757;SDS011;26462;47.384;19.218;2023-08-20T15:04:43;8.50;;;6.93;;
40757;SDS011;26462;47.384;19.218;2023-08-20T15:07:10;6.32;;;5.72;;
40757;SDS011;26462;47.384;19.218;2023-08-20T15:09:37;6.53;;;5.90;;
40757;SDS011;26462;47.384;19.218;2023-08-20T15:12:04;7.20;;;5.68;;